createdAt,value
2022-08-04T00:02:55.385Z,5.50
2022-08-04T00:06:04.768Z,5.38
2022-08-04T00:09:10.375Z,4.73
2022-08-04T00:12:12.785Z,5.47
2022-08-04T00:15:16.555Z,5.65
2022-08-04T00:18:22.039Z,5.30
2022-08-04T00:21:25.424Z,5.22
2022-08-04T00:24:29.776Z,5.53
2022-08-04T00:27:32.385Z,5.28
2022-08-04T00:30:41.385Z,5.80
2022-08-04T00:33:44.482Z,4.93
2022-08-04T00:36:46.648Z,5.05
2022-08-04T00:39:49.440Z,5.83
2022-08-04T00:42:59.218Z,4.72
2022-08-04T00:46:15.276Z,4.97
2022-08-04T00:49:39.957Z,5.00
2022-08-04T00:52:56.561Z,5.53
2022-08-04T00:56:01.310Z,5.50
2022-08-04T00:59:06.109Z,5.28
2022-08-04T01:02:15.874Z,5.93
2022-08-04T01:05:22.302Z,5.70
2022-08-04T01:08:53.709Z,5.50
2022-08-04T01:12:09.880Z,5.53
2022-08-04T01:15:17.904Z,5.80
2022-08-04T01:18:27.423Z,5.75
2022-08-04T01:21:29.460Z,5.60
2022-08-04T01:24:40.327Z,5.35
2022-08-04T01:27:43.301Z,5.33
2022-08-04T01:30:47.939Z,5.40
2022-08-04T01:34:03.113Z,5.43
2022-08-04T01:37:08.883Z,6.15
2022-08-04T01:40:13.310Z,6.20
2022-08-04T01:43:16.249Z,6.40
2022-08-04T01:46:18.322Z,6.90
2022-08-04T01:49:21.462Z,7.32
2022-08-04T01:52:24.638Z,7.20
2022-08-04T01:55:54.343Z,7.03
2022-08-04T01:58:50.401Z,6.73
2022-08-04T02:01:53.088Z,6.28
2022-08-04T02:04:55.236Z,5.88
2022-08-04T02:08:12.264Z,6.60
2022-08-04T02:11:16.602Z,5.30
2022-08-04T02:14:41.406Z,5.70
2022-08-04T02:17:43.385Z,5.20
2022-08-04T02:20:47.006Z,5.55
2022-08-04T02:23:51.922Z,5.35
2022-08-04T02:26:56.404Z,5.15
2022-08-04T02:30:04.923Z,5.33
2022-08-04T02:33:07.666Z,5.10
2022-08-04T02:36:10.968Z,5.32
2022-08-04T02:39:13.926Z,4.57
2022-08-04T02:42:16.746Z,4.93
2022-08-04T02:45:19.212Z,5.03
2022-08-04T02:48:30.047Z,5.28
2022-08-04T02:51:37.149Z,5.25
2022-08-04T02:54:39.955Z,4.70
2022-08-04T02:57:42.519Z,4.72
2022-08-04T03:00:45.560Z,4.80
2022-08-04T03:03:50.335Z,4.60
2022-08-04T03:06:59.088Z,4.85
2022-08-04T03:10:04.158Z,4.70
2022-08-04T03:13:08.961Z,5.05
2022-08-04T03:16:16.857Z,5.70
2022-08-04T03:19:36.952Z,5.00
2022-08-04T03:23:12.376Z,4.47
2022-08-04T03:26:18.415Z,5.25
2022-08-04T03:29:36.890Z,5.75
2022-08-04T03:32:39.285Z,4.67
2022-08-04T03:35:53.340Z,4.30
2022-08-04T03:39:04.289Z,4.70
2022-08-04T03:42:18.405Z,4.57
2022-08-04T03:45:24.369Z,4.85
2022-08-04T03:48:35.577Z,4.00
2022-08-04T03:52:11.268Z,4.60
2022-08-04T03:55:26.338Z,4.43
2022-08-04T03:58:43.461Z,4.93
2022-08-04T04:02:02.920Z,5.50
2022-08-04T04:05:07.445Z,4.63
2022-08-04T04:08:23.547Z,4.30
2022-08-04T04:11:57.511Z,4.25
2022-08-04T04:15:09.174Z,5.03
2022-08-04T04:18:16.629Z,5.10
2022-08-04T04:21:34.254Z,4.87
2022-08-04T04:24:54.754Z,3.95
2022-08-04T04:28:45.274Z,4.75
2022-08-04T04:31:33.556Z,4.60
2022-08-04T04:34:45.822Z,4.80
2022-08-04T04:38:05.425Z,4.70
2022-08-04T04:41:13.230Z,4.90
2022-08-04T04:44:28.736Z,3.97
2022-08-04T04:48:09.160Z,4.88
2022-08-04T04:51:20.826Z,4.50
2022-08-04T04:54:28.552Z,4.53
2022-08-04T04:57:53.516Z,4.25
2022-08-04T05:01:11.072Z,4.25
2022-08-04T05:04:22.114Z,5.32
2022-08-04T05:07:42.447Z,4.82
2022-08-04T05:10:53.414Z,4.80
2022-08-04T05:14:35.657Z,5.07
2022-08-04T05:17:40.604Z,4.95
2022-08-04T05:20:44.577Z,4.63
2022-08-04T05:23:49.130Z,5.32
2022-08-04T05:26:55.196Z,5.27
2022-08-04T05:29:59.737Z,4.40
2022-08-04T05:33:07.343Z,5.07
2022-08-04T05:36:21.821Z,3.78
2022-08-04T05:39:34.438Z,4.15
2022-08-04T05:42:38.318Z,3.87
2022-08-04T05:45:40.420Z,4.15
2022-08-04T05:48:42.712Z,4.22
2022-08-04T05:51:46.197Z,4.28
2022-08-04T05:54:49.001Z,4.15
2022-08-04T05:57:55.587Z,3.77
2022-08-04T06:01:01.253Z,4.15
2022-08-04T06:04:06.899Z,3.60
2022-08-04T06:07:14.263Z,2.88
2022-08-04T06:10:20.458Z,3.65
2022-08-04T06:13:49.571Z,3.00
2022-08-04T06:16:53.309Z,3.72
2022-08-04T06:20:18.195Z,3.55
2022-08-04T06:23:19.759Z,2.80
2022-08-04T06:26:22.589Z,3.17
2022-08-04T06:29:35.320Z,3.10
2022-08-04T06:32:47.722Z,3.30
2022-08-04T06:35:50.714Z,2.70
2022-08-04T06:38:58.757Z,2.85
2022-08-04T06:42:22.144Z,3.22
2022-08-04T06:45:24.231Z,2.83
2022-08-04T06:48:33.211Z,3.50
2022-08-04T06:51:46.729Z,2.85
2022-08-04T06:54:50.983Z,2.78
2022-08-04T06:57:54.334Z,2.72
2022-08-04T07:01:02.101Z,3.13
2022-08-04T07:04:04.940Z,2.78
2022-08-04T07:07:07.057Z,2.65
2022-08-04T07:10:09.593Z,2.90
2022-08-04T07:13:12.078Z,2.70
2022-08-04T07:16:15.331Z,2.83
2022-08-04T07:19:19.173Z,2.50
2022-08-04T07:22:25.569Z,2.63
2022-08-04T07:25:28.920Z,2.30
2022-08-04T07:28:50.403Z,3.30
2022-08-04T07:31:53.436Z,2.17
2022-08-04T07:34:56.233Z,2.15
2022-08-04T07:37:58.671Z,2.60
2022-08-04T07:41:01.471Z,2.05
2022-08-04T07:44:03.952Z,2.00
2022-08-04T07:47:07.318Z,2.60
2022-08-04T07:50:11.088Z,2.30
2022-08-04T07:53:55.225Z,2.35
2022-08-04T07:56:36.827Z,2.50
2022-08-04T07:59:38.973Z,2.40
2022-08-04T08:02:41.664Z,2.80
2022-08-04T08:05:54.651Z,2.80
2022-08-04T08:09:16.505Z,2.78
2022-08-04T08:12:38.166Z,3.10
2022-08-04T08:15:41.499Z,2.97
2022-08-04T08:18:48.134Z,2.93
2022-08-04T08:21:59.325Z,2.40
2022-08-04T08:25:02.437Z,2.40
2022-08-04T08:28:05.125Z,2.47
2022-08-04T08:31:07.422Z,1.83
2022-08-04T08:34:11.425Z,2.43
2022-08-04T08:37:35.205Z,2.65
2022-08-04T08:40:44.048Z,2.50
2022-08-04T08:44:04.748Z,2.47
2022-08-04T08:47:29.487Z,2.65
2022-08-04T08:51:10.198Z,3.43
2022-08-04T08:54:15.021Z,2.30
2022-08-04T08:57:30.301Z,2.60
2022-08-04T09:00:51.090Z,2.88
2022-08-04T09:04:10.499Z,2.22
2022-08-04T09:07:48.167Z,2.40
2022-08-04T09:10:54.003Z,2.08
2022-08-04T09:13:58.045Z,2.47
2022-08-04T09:17:11.272Z,2.05
2022-08-04T09:20:17.603Z,2.72
2022-08-04T09:23:38.303Z,2.37
2022-08-04T09:27:00.703Z,2.33
2022-08-04T09:30:06.857Z,2.50
2022-08-04T09:33:44.490Z,2.38
2022-08-04T09:36:53.664Z,2.28
2022-08-04T09:40:31.114Z,2.00
2022-08-04T09:43:59.508Z,2.10
2022-08-04T09:47:20.739Z,2.70
2022-08-04T09:50:37.867Z,2.10
2022-08-04T09:54:04.052Z,2.38
2022-08-04T09:57:22.618Z,2.30
2022-08-04T10:00:38.466Z,2.78
2022-08-04T10:03:45.639Z,2.25
2022-08-04T10:07:04.024Z,2.25
2022-08-04T10:10:22.177Z,2.97
2022-08-04T10:13:42.851Z,1.97
2022-08-04T10:16:58.682Z,2.20
2022-08-04T10:20:07.596Z,2.45
2022-08-04T10:23:15.906Z,1.88
2022-08-04T10:26:26.014Z,2.15
2022-08-04T10:29:30.786Z,2.50
2022-08-04T10:32:36.964Z,2.20
2022-08-04T10:36:10.288Z,2.30
2022-08-04T10:39:42.102Z,2.38
2022-08-04T10:42:43.163Z,2.08
2022-08-04T10:45:47.851Z,2.30
2022-08-04T10:49:00.995Z,2.40
2022-08-04T10:52:03.089Z,2.20
2022-08-04T10:55:18.819Z,2.50
2022-08-04T10:58:23.899Z,2.30
2022-08-04T11:02:01.519Z,2.43
2022-08-04T11:05:14.841Z,2.00
2022-08-04T11:08:22.610Z,2.17
2022-08-04T11:12:00.673Z,2.40
2022-08-04T11:15:11.048Z,2.50
2022-08-04T11:18:23.360Z,2.50
2022-08-04T11:21:28.500Z,2.38
2022-08-04T11:24:40.684Z,2.42
2022-08-04T11:28:01.543Z,2.17
2022-08-04T11:31:05.113Z,2.35
2022-08-04T11:34:10.043Z,2.40
2022-08-04T11:37:23.223Z,2.42
2022-08-04T11:40:28.129Z,2.25
2022-08-04T11:43:58.680Z,2.47
2022-08-04T11:46:59.884Z,3.10
2022-08-04T11:50:12.853Z,2.60
2022-08-04T11:53:19.360Z,2.60
2022-08-04T11:56:36.721Z,3.00
2022-08-04T11:59:41.808Z,2.33
2022-08-04T12:02:56.047Z,2.40
2022-08-04T12:06:03.778Z,2.30
2022-08-04T12:09:21.205Z,3.10
2022-08-04T12:12:35.036Z,2.88
2022-08-04T12:15:59.719Z,2.80
2022-08-04T12:19:03.461Z,2.28
2022-08-04T12:22:08.828Z,3.07
2022-08-04T12:25:14.476Z,2.45
2022-08-04T12:28:24.882Z,2.38
2022-08-04T12:31:28.492Z,2.55
2022-08-04T12:34:32.670Z,2.83
2022-08-04T12:37:40.580Z,2.47
2022-08-04T12:40:47.035Z,2.38
2022-08-04T12:43:50.403Z,3.20
2022-08-04T12:46:52.673Z,2.28
2022-08-04T12:50:00.594Z,2.80
2022-08-04T12:53:10.888Z,2.00
2022-08-04T12:56:17.291Z,2.42
2022-08-04T12:59:20.349Z,3.30
2022-08-04T13:02:27.509Z,2.47
2022-08-04T13:05:30.782Z,2.58
2022-08-04T13:08:36.161Z,2.90
2022-08-04T13:11:40.759Z,2.50
2022-08-04T13:14:48.396Z,2.55
2022-08-04T13:17:57.121Z,2.90
2022-08-04T13:21:20.199Z,2.67
2022-08-04T13:24:32.509Z,2.80
2022-08-04T13:27:43.362Z,2.53
2022-08-04T13:30:46.327Z,3.00
2022-08-04T13:33:49.587Z,2.40
2022-08-04T13:36:54.976Z,2.85
2022-08-04T13:39:57.509Z,2.67
2022-08-04T13:43:01.457Z,2.40
2022-08-04T13:46:04.464Z,2.65
2022-08-04T13:49:42.790Z,2.70
2022-08-04T13:52:33.716Z,2.38
2022-08-04T13:55:36.946Z,2.20
2022-08-04T13:58:44.407Z,2.53
2022-08-04T14:01:57.699Z,2.83
2022-08-04T14:05:04.312Z,2.42
2022-08-04T14:08:06.675Z,2.80
2022-08-04T14:11:09.065Z,2.40
2022-08-04T14:14:32.246Z,2.50
2022-08-04T14:17:34.576Z,3.08
2022-08-04T14:20:36.776Z,3.00
2022-08-04T14:23:47.049Z,2.90
2022-08-04T14:26:49.855Z,2.43
2022-08-04T14:29:51.942Z,2.30
2022-08-04T14:32:56.388Z,2.10
2022-08-04T14:36:04.214Z,2.30
2022-08-04T14:39:07.419Z,2.33
2022-08-04T14:42:10.060Z,2.00
2022-08-04T14:45:12.305Z,2.20
2022-08-04T14:48:14.868Z,2.17
2022-08-04T14:51:17.637Z,2.45
2022-08-04T14:54:32.421Z,3.28
2022-08-04T14:58:35.424Z,2.57
2022-08-04T15:01:03.201Z,2.22
2022-08-04T15:04:13.930Z,2.17
2022-08-04T15:07:17.201Z,2.70
2022-08-04T15:10:22.070Z,3.15
2022-08-04T15:13:26.807Z,2.73
2022-08-04T15:16:33.074Z,2.50
2022-08-04T15:19:38.577Z,2.60
2022-08-04T15:22:42.641Z,2.40
2022-08-04T15:25:49.622Z,2.83
2022-08-04T15:28:56.818Z,3.00
2022-08-04T15:32:09.326Z,2.60
2022-08-04T15:35:22.091Z,2.20
2022-08-04T15:38:37.343Z,2.30
2022-08-04T15:41:55.242Z,2.53
2022-08-04T15:45:18.530Z,4.40
2022-08-04T15:48:23.585Z,2.67
2022-08-04T15:51:31.808Z,2.63
2022-08-04T15:54:38.117Z,2.67
2022-08-04T15:58:09.925Z,2.90
2022-08-04T16:01:14.917Z,2.70
2022-08-04T16:04:24.608Z,2.60
2022-08-04T16:07:46.325Z,2.55
2022-08-04T16:10:49.060Z,2.40
2022-08-04T16:13:56.873Z,2.67
2022-08-04T16:17:13.625Z,2.33
2022-08-04T16:20:16.027Z,2.55
2022-08-04T16:23:43.868Z,2.88
2022-08-04T16:26:45.649Z,3.20
2022-08-04T16:29:48.179Z,2.67
2022-08-04T16:32:52.019Z,2.93
2022-08-04T16:36:07.873Z,2.80
2022-08-04T16:39:18.461Z,2.95
2022-08-04T16:42:31.431Z,3.17
2022-08-04T16:45:46.591Z,3.38
2022-08-04T16:49:05.635Z,2.50
2022-08-04T16:52:13.327Z,2.67
2022-08-04T16:55:20.008Z,3.05
2022-08-04T16:58:30.309Z,2.90
2022-08-04T17:01:35.131Z,2.55
2022-08-04T17:04:37.202Z,3.30
2022-08-04T17:08:07.168Z,3.08
2022-08-04T17:11:15.621Z,5.57
2022-08-04T17:14:28.425Z,3.08
2022-08-04T17:18:03.999Z,2.80
2022-08-04T17:21:01.554Z,2.50
2022-08-04T17:24:14.438Z,2.80
2022-08-04T17:28:06.130Z,3.55
2022-08-04T17:30:47.958Z,3.50
2022-08-04T17:33:56.651Z,3.30
2022-08-04T17:37:24.448Z,3.20
2022-08-04T17:40:25.899Z,3.17
2022-08-04T17:47:19.392Z,3.30
2022-08-04T17:50:25.614Z,2.95
2022-08-04T17:54:01.554Z,3.20
2022-08-04T17:57:00.042Z,3.05
2022-08-04T18:00:02.112Z,3.10
2022-08-04T18:03:24.589Z,3.70
2022-08-04T18:06:32.172Z,3.67
2022-08-04T18:10:01.928Z,3.23
2022-08-04T18:13:06.160Z,3.58
2022-08-04T18:16:22.590Z,3.67
2022-08-04T18:19:25.439Z,4.15
2022-08-04T18:22:28.803Z,4.00
2022-08-04T18:25:51.181Z,3.13
2022-08-04T18:28:52.880Z,3.67
2022-08-04T18:31:54.904Z,3.30
2022-08-04T18:34:57.487Z,3.42
2022-08-04T18:38:22.557Z,3.47
2022-08-04T18:41:28.945Z,3.07
2022-08-04T18:44:52.283Z,2.85
2022-08-04T18:47:59.030Z,3.00
2022-08-04T18:51:10.299Z,3.22
2022-08-04T18:54:21.292Z,2.90
2022-08-04T18:57:59.070Z,3.20
2022-08-04T19:00:49.884Z,3.13
2022-08-04T19:07:28.879Z,3.20
2022-08-04T19:10:32.512Z,3.35
2022-08-04T19:13:36.779Z,3.00
2022-08-04T19:16:40.837Z,3.40
2022-08-04T19:19:47.631Z,3.10
2022-08-04T19:24:11.285Z,3.53
2022-08-04T19:26:23.659Z,3.45
2022-08-04T19:29:37.765Z,3.23
2022-08-04T19:32:40.546Z,3.25
2022-08-04T19:35:46.333Z,3.33
2022-08-04T19:38:53.490Z,4.00
2022-08-04T19:42:06.678Z,3.85
2022-08-04T19:45:10.052Z,3.63
2022-08-04T19:48:19.844Z,3.90
2022-08-04T19:51:22.562Z,4.20
2022-08-04T19:54:27.405Z,3.88
2022-08-04T19:57:35.595Z,4.70
2022-08-04T20:00:39.315Z,3.50
2022-08-04T20:04:08.914Z,3.55
2022-08-04T20:07:03.457Z,3.72
2022-08-04T20:10:07.164Z,4.07
2022-08-04T20:13:10.443Z,4.35
2022-08-04T20:19:35.695Z,3.70
2022-08-04T20:22:50.913Z,4.00
2022-08-04T20:25:55.291Z,4.07
2022-08-04T20:28:58.291Z,4.10
2022-08-04T20:32:05.414Z,3.77
2022-08-04T20:35:15.742Z,4.13
2022-08-04T20:38:33.439Z,4.28
2022-08-04T20:41:37.009Z,4.10
2022-08-04T20:48:01.411Z,3.70
2022-08-04T20:51:03.603Z,4.07
2022-08-04T20:54:16.659Z,3.40
2022-08-04T20:57:47.727Z,3.80
2022-08-04T21:00:46.831Z,5.15
2022-08-04T21:04:14.277Z,3.70
2022-08-04T21:07:29.209Z,3.70
2022-08-04T21:10:39.324Z,3.40
2022-08-04T21:13:52.422Z,3.72
2022-08-04T21:16:56.428Z,4.10
2022-08-04T21:19:58.521Z,3.67
2022-08-04T21:23:03.710Z,3.20
2022-08-04T21:26:10.908Z,3.88
2022-08-04T21:32:52.155Z,3.28
2022-08-04T21:35:54.716Z,3.73
2022-08-04T21:38:56.920Z,3.58
2022-08-04T21:45:21.828Z,3.50
2022-08-04T21:48:27.547Z,3.58
2022-08-04T21:51:58.110Z,3.50
2022-08-04T21:54:56.651Z,3.35
2022-08-04T21:57:59.352Z,3.67
2022-08-04T22:01:05.893Z,2.97
2022-08-04T22:04:15.092Z,3.65
2022-08-04T22:07:17.172Z,3.13
2022-08-04T22:10:32.348Z,3.25
2022-08-04T22:13:52.913Z,3.65
2022-08-04T22:16:58.713Z,3.33
2022-08-04T22:20:02.102Z,3.63
2022-08-04T22:23:15.599Z,3.73
2022-08-04T22:26:26.401Z,3.65
2022-08-04T22:29:29.033Z,3.85
2022-08-04T22:32:33.195Z,3.40
2022-08-04T22:35:43.497Z,3.40
2022-08-04T22:39:01.590Z,3.03
2022-08-04T22:42:08.769Z,3.40
2022-08-04T22:45:15.582Z,3.50
2022-08-04T22:48:18.263Z,2.97
2022-08-04T22:51:20.626Z,3.75
2022-08-04T22:54:25.993Z,3.40
2022-08-04T22:57:43.359Z,3.60
2022-08-04T23:00:54.040Z,3.03
2022-08-04T23:04:00.314Z,3.42
2022-08-04T23:07:05.374Z,3.67
2022-08-04T23:10:11.696Z,3.20
2022-08-04T23:13:14.567Z,3.47
2022-08-04T23:16:17.805Z,3.75
2022-08-04T23:19:19.857Z,3.80
2022-08-04T23:22:41.965Z,3.58
2022-08-04T23:26:07.436Z,3.07
2022-08-04T23:29:07.594Z,3.92
2022-08-04T23:32:09.740Z,3.22
2022-08-04T23:35:11.759Z,3.30
2022-08-04T23:38:30.263Z,3.28
2022-08-04T23:41:53.524Z,3.13
2022-08-04T23:44:57.388Z,3.13
2022-08-04T23:48:16.006Z,3.67
2022-08-04T23:51:21.521Z,4.32
2022-08-04T23:54:26.008Z,3.85
2022-08-04T23:57:31.371Z,4.27
